Time;durP1;ratioP1;P1;durP2;ratioP2;P2;SDS_P1;SDS_P2;PMS_P1;PMS_P2;Temp;Humidity;BMP_temperature;BMP_pressure;BME280_temperature;BME280_humidity;BME280_pressure;Samples;Min_cycle;Max_cycle;Signal;HPM_P1;HPM_P2
2023/03/23 00:00:21;;;;;;;39.78;26.45;;;11.60;99.90;;;;;;5065737;28;20381;-67
2023/03/23 00:03:09;;;;;;;37.30;25.50;;;11.60;99.90;;;;;;5080596;28;20220;-66
2023/03/23 00:06:02;;;;;;;35.72;24.65;;;11.70;99.90;;;;;;5077836;28;20227;-68
2023/03/23 00:08:56;;;;;;;40.38;25.13;;;11.70;99.90;;;;;;5078916;28;20248;-67
2023/03/23 00:11:44;;;;;;;40.13;26.17;;;11.60;99.90;;;;;;5068391;28;21058;-67
2023/03/23 00:14:41;;;;;;;37.03;25.58;;;11.50;99.90;;;;;;5079291;28;20306;-68
2023/03/23 00:17:29;;;;;;;37.97;25.38;;;11.60;99.90;;;;;;5078237;28;20730;-67
2023/03/23 00:20:17;;;;;;;37.92;26.02;;;11.60;99.90;;;;;;5066748;28;20235;-67
2023/03/23 00:23:04;;;;;;;39.08;26.38;;;11.60;99.90;;;;;;5063794;28;20791;-66
2023/03/23 00:25:56;;;;;;;37.38;25.50;;;11.50;99.90;;;;;;5068505;28;20227;-65
2023/03/23 00:28:46;;;;;;;39.45;26.25;;;11.50;99.90;;;;;;5079075;28;20262;-67
2023/03/23 00:31:35;;;;;;;36.83;25.50;;;11.50;99.90;;;;;;5084667;28;20683;-66
2023/03/23 00:34:25;;;;;;;36.58;25.40;;;11.50;99.90;;;;;;5068361;28;20322;-64
2023/03/23 00:37:13;;;;;;;37.60;26.60;;;11.50;99.90;;;;;;5076049;28;20243;-66
2023/03/23 00:40:00;;;;;;;39.10;26.20;;;11.40;99.90;;;;;;5068426;28;20215;-65
2023/03/23 00:42:48;;;;;;;42.53;25.90;;;11.50;99.90;;;;;;5063816;28;20721;-66
2023/03/23 00:45:36;;;;;;;38.55;25.00;;;11.40;99.90;;;;;;5066626;28;20227;-66
2023/03/23 00:48:25;;;;;;;40.15;26.67;;;11.40;99.90;;;;;;5083094;28;20256;-66
2023/03/23 00:51:13;;;;;;;38.03;25.58;;;11.40;99.90;;;;;;5080106;28;20231;-67
2023/03/23 00:54:01;;;;;;;38.85;26.67;;;11.30;99.90;;;;;;5067068;28;20314;-67
2023/03/23 00:56:48;;;;;;;41.13;26.05;;;11.30;99.90;;;;;;5064701;28;20222;-67
2023/03/23 00:59:37;;;;;;;37.70;25.67;;;11.30;99.90;;;;;;5076680;28;20223;-67
2023/03/23 01:02:25;;;;;;;43.80;27.55;;;11.40;99.90;;;;;;5061177;28;20219;-67
2023/03/23 01:05:16;;;;;;;38.92;26.50;;;11.40;99.90;;;;;;5081322;28;20227;-67
2023/03/23 01:08:03;;;;;;;37.53;25.98;;;11.40;99.90;;;;;;5080019;28;20334;-67
2023/03/23 01:10:53;;;;;;;37.83;25.90;;;11.30;99.90;;;;;;5078108;28;21250;-64
2023/03/23 01:13:44;;;;;;;39.25;26.70;;;11.30;99.90;;;;;;5062549;28;21050;-65
2023/03/23 01:16:33;;;;;;;42.78;26.75;;;11.30;99.90;;;;;;5087332;28;20731;-65
2023/03/23 01:19:21;;;;;;;37.35;25.65;;;11.30;99.90;;;;;;5068069;28;20222;-63
2023/03/23 01:22:10;;;;;;;40.40;26.50;;;11.30;99.90;;;;;;5076518;28;20254;-63
2023/03/23 01:24:58;;;;;;;36.70;25.02;;;11.30;99.90;;;;;;5066000;28;20235;-64
2023/03/23 01:27:45;;;;;;;44.20;25.95;;;11.30;99.90;;;;;;5057630;28;20716;-65
2023/03/23 01:30:33;;;;;;;45.58;26.20;;;11.30;99.90;;;;;;5072888;28;20607;-64
2023/03/23 01:33:21;;;;;;;38.20;25.45;;;11.40;99.90;;;;;;5082924;28;20239;-65
2023/03/23 01:36:12;;;;;;;35.40;24.65;;;11.40;99.90;;;;;;5073167;28;20223;-66
2023/03/23 01:39:04;;;;;;;35.22;24.40;;;11.40;99.90;;;;;;5076550;28;20306;-66
2023/03/23 01:41:52;;;;;;;36.03;25.20;;;11.40;99.90;;;;;;5082561;28;20219;-67
2023/03/23 01:45:21;;;;;;;36.30;25.08;;;11.30;99.90;;;;;;5080401;28;20357;-66
2023/03/23 01:48:14;;;;;;;38.85;24.65;;;11.40;99.90;;;;;;5061347;28;20212;-65
2023/03/23 01:51:05;;;;;;;38.30;26.38;;;11.30;99.90;;;;;;5079098;28;20222;-64
2023/03/23 01:53:56;;;;;;;39.22;23.60;;;11.40;99.90;;;;;;5062458;28;20479;-64
2023/03/23 01:56:49;;;;;;;37.70;25.20;;;11.30;99.90;;;;;;5078045;28;20306;-63
2023/03/23 01:59:38;;;;;;;39.03;24.63;;;11.40;99.90;;;;;;5064176;28;20227;-64
2023/03/23 02:02:39;;;;;;;43.63;25.33;;;11.30;99.90;;;;;;5058940;28;20238;-62
2023/03/23 02:05:31;;;;;;;38.40;25.08;;;11.30;99.90;;;;;;5077579;28;20613;-62
2023/03/23 02:08:23;;;;;;;35.38;23.88;;;11.30;99.90;;;;;;5094379;28;20306;-63
2023/03/23 02:11:15;;;;;;;36.38;24.23;;;11.20;99.90;;;;;;5063776;28;20218;-64
2023/03/23 02:14:04;;;;;;;36.65;23.83;;;11.20;99.90;;;;;;5085072;27;20678;-65
2023/03/23 02:16:57;;;;;;;39.20;24.38;;;11.20;99.90;;;;;;5079994;28;20294;-65
2023/03/23 02:20:07;;;;;;;34.17;22.85;;;11.20;99.90;;;;;;5058963;28;20231;-64
2023/03/23 02:23:14;;;;;;;33.17;23.60;;;11.10;99.90;;;;;;5064434;28;20444;-64
2023/03/23 02:26:14;;;;;;;36.20;23.98;;;11.10;99.90;;;;;;5094335;28;20266;-65
2023/03/23 02:29:38;;;;;;;34.55;23.38;;;11.20;99.90;;;;;;5074119;28;20621;-65
2023/03/23 02:32:52;;;;;;;37.42;23.90;;;11.20;99.90;;;;;;5090014;28;20219;-64
2023/03/23 02:35:45;;;;;;;35.40;22.63;;;11.10;99.90;;;;;;5064295;27;20231;-65
2023/03/23 02:38:38;;;;;;;35.67;23.45;;;11.10;99.90;;;;;;5065578;28;20223;-64
2023/03/23 02:41:32;;;;;;;35.10;24.00;;;11.20;99.90;;;;;;5075769;28;20299;-65
2023/03/23 02:44:20;;;;;;;33.95;23.00;;;11.20;99.90;;;;;;5076741;28;20231;-65
2023/03/23 02:47:16;;;;;;;34.67;23.38;;;11.10;99.90;;;;;;5068727;28;20215;-65
2023/03/23 02:50:06;;;;;;;35.40;21.92;;;11.10;99.90;;;;;;5079405;28;20310;-64
2023/03/23 02:52:58;;;;;;;32.00;21.98;;;11.10;99.90;;;;;;5072778;28;20215;-66
2023/03/23 02:55:46;;;;;;;29.75;22.13;;;11.10;99.90;;;;;;5054256;28;20241;-64
2023/03/23 02:58:38;;;;;;;32.75;22.38;;;11.20;99.90;;;;;;5067354;28;20228;-64
2023/03/23 03:02:02;;;;;;;35.40;23.50;;;11.10;99.90;;;;;;5065706;28;20281;-65
2023/03/23 03:04:57;;;;;;;33.63;22.45;;;11.20;99.90;;;;;;5077883;28;20238;-65
2023/03/23 03:07:59;;;;;;;30.33;21.50;;;11.20;99.90;;;;;;5080041;28;20231;-65
2023/03/23 03:10:53;;;;;;;31.63;20.23;;;11.10;99.90;;;;;;5065748;28;20584;-66
2023/03/23 03:13:48;;;;;;;32.60;20.70;;;11.10;99.90;;;;;;5064085;28;20753;-66
2023/03/23 03:16:42;;;;;;;29.38;20.08;;;11.20;99.90;;;;;;5078617;28;20227;-66
2023/03/23 03:19:33;;;;;;;32.55;19.98;;;11.10;99.90;;;;;;5064291;28;20235;-65
2023/03/23 03:22:21;;;;;;;29.50;20.50;;;11.20;99.90;;;;;;5077589;28;20706;-66
2023/03/23 03:25:13;;;;;;;31.88;20.23;;;11.20;99.90;;;;;;5072100;28;20251;-66
2023/03/23 03:28:03;;;;;;;28.48;19.42;;;11.20;99.90;;;;;;5053524;28;20279;-66
2023/03/23 03:31:05;;;;;;;30.65;20.08;;;11.20;99.90;;;;;;5054947;28;20220;-65
2023/03/23 03:33:53;;;;;;;30.90;19.13;;;11.20;99.90;;;;;;5079473;28;20276;-66
2023/03/23 03:36:42;;;;;;;28.95;19.40;;;11.10;99.90;;;;;;5081087;28;20235;-66
2023/03/23 03:39:32;;;;;;;30.00;19.52;;;11.10;99.90;;;;;;5068078;28;20223;-66
2023/03/23 03:42:24;;;;;;;27.33;18.48;;;11.10;99.90;;;;;;5080322;28;20204;-64
2023/03/23 03:45:15;;;;;;;30.33;19.20;;;11.20;99.90;;;;;;5060334;28;20594;-66
2023/03/23 03:48:03;;;;;;;26.25;18.67;;;11.20;99.90;;;;;;5079916;28;20842;-65
2023/03/23 03:50:51;;;;;;;29.70;19.00;;;11.20;99.90;;;;;;5067573;28;20220;-66
2023/03/23 03:53:40;;;;;;;26.63;18.75;;;11.20;99.90;;;;;;5069931;28;20287;-65
2023/03/23 03:56:28;;;;;;;29.48;19.10;;;11.10;99.90;;;;;;5083087;28;20223;-66
2023/03/23 03:59:37;;;;;;;27.20;18.48;;;11.00;99.90;;;;;;5064014;28;20215;-65
2023/03/23 04:02:31;;;;;;;29.55;18.75;;;11.00;99.90;;;;;;5075788;28;20220;-65
2023/03/23 04:05:20;;;;;;;25.55;17.98;;;11.00;99.90;;;;;;5076459;28;20219;-66
2023/03/23 04:08:10;;;;;;;29.08;19.30;;;11.00;99.90;;;;;;5079473;28;20220;-64
2023/03/23 04:11:02;;;;;;;29.58;18.80;;;11.10;99.90;;;;;;5082342;28;20289;-63
2023/03/23 04:13:55;;;;;;;29.73;19.42;;;11.00;99.90;;;;;;5075976;28;20255;-65
2023/03/23 04:16:47;;;;;;;27.58;17.90;;;11.00;99.90;;;;;;5062578;28;20306;-64
2023/03/23 04:19:34;;;;;;;26.80;18.95;;;11.00;99.90;;;;;;5076663;28;20224;-63
2023/03/23 04:22:24;;;;;;;29.50;19.05;;;11.00;99.90;;;;;;5066742;28;20266;-65
2023/03/23 04:25:14;;;;;;;26.70;17.65;;;11.10;99.90;;;;;;5055801;28;20213;-65
2023/03/23 04:28:03;;;;;;;29.33;18.85;;;11.00;99.90;;;;;;5065078;28;20330;-65
2023/03/23 04:31:00;;;;;;;27.55;19.02;;;11.00;99.90;;;;;;5077877;28;20226;-65
2023/03/23 04:33:49;;;;;;;29.58;18.90;;;11.00;99.90;;;;;;5066550;28;20717;-65
2023/03/23 04:36:37;;;;;;;26.63;17.75;;;11.00;99.90;;;;;;5063733;28;21129;-65
2023/03/23 04:39:33;;;;;;;26.52;18.45;;;11.00;99.90;;;;;;5074019;28;20266;-65
2023/03/23 04:42:25;;;;;;;28.15;18.55;;;10.90;99.90;;;;;;5068826;28;20261;-65
2023/03/23 04:45:31;;;;;;;25.13;18.08;;;10.90;99.90;;;;;;5079645;28;20224;-64
2023/03/23 04:48:22;;;;;;;24.27;17.42;;;10.90;99.90;;;;;;5070555;28;20607;-65
2023/03/23 04:51:21;;;;;;;28.30;17.88;;;11.00;99.90;;;;;;5074373;28;20248;-65
2023/03/23 04:54:12;;;;;;;26.58;17.52;;;10.90;99.90;;;;;;5078031;28;20219;-64
2023/03/23 04:57:03;;;;;;;28.02;17.67;;;10.90;99.90;;;;;;5063251;28;20387;-65
2023/03/23 04:59:52;;;;;;;27.23;17.80;;;11.00;99.90;;;;;;5062287;28;20234;-64
2023/03/23 05:02:51;;;;;;;25.20;17.85;;;11.00;99.90;;;;;;5083410;28;20222;-65
2023/03/23 05:05:40;;;;;;;27.88;17.95;;;11.00;99.90;;;;;;5068727;28;20234;-65
2023/03/23 05:08:31;;;;;;;26.35;17.65;;;11.00;99.90;;;;;;5068022;28;20215;-65
2023/03/23 05:11:19;;;;;;;26.05;18.00;;;11.00;99.90;;;;;;5068444;28;20305;-66
2023/03/23 05:14:06;;;;;;;27.05;18.25;;;11.10;99.90;;;;;;5060975;28;20231;-64
2023/03/23 05:16:54;;;;;;;29.08;19.83;;;11.10;99.90;;;;;;5062353;28;20224;-63
2023/03/23 05:19:43;;;;;;;30.15;21.33;;;11.20;99.90;;;;;;5076694;28;20252;-64
2023/03/23 05:22:49;;;;;;;32.28;22.65;;;11.20;99.90;;;;;;5068845;28;20219;-65
2023/03/23 05:25:43;;;;;;;32.42;21.88;;;11.20;99.90;;;;;;5076248;28;20827;-66
2023/03/23 05:28:37;;;;;;;27.02;19.35;;;11.20;99.90;;;;;;5063883;28;20942;-64
2023/03/23 05:31:44;;;;;;;27.92;18.58;;;11.20;99.90;;;;;;5083632;28;20596;-64
2023/03/23 05:34:33;;;;;;;27.30;18.73;;;11.20;99.90;;;;;;5060877;28;20216;-66
2023/03/23 05:37:22;;;;;;;29.58;18.98;;;11.20;99.90;;;;;;5067444;28;20828;-66
2023/03/23 05:40:27;;;;;;;29.00;18.13;;;11.20;99.90;;;;;;5085384;28;20282;-63
2023/03/23 05:43:22;;;;;;;26.83;18.42;;;11.30;99.90;;;;;;5068948;28;20239;-64
2023/03/23 05:46:33;;;;;;;30.27;18.00;;;11.30;99.90;;;;;;5082697;28;20970;-64
2023/03/23 05:49:23;;;;;;;25.35;18.13;;;11.30;99.90;;;;;;5062159;28;20222;-67
2023/03/23 05:52:11;;;;;;;28.42;18.10;;;11.30;99.90;;;;;;5079209;28;20441;-65
2023/03/23 05:54:59;;;;;;;29.23;17.77;;;11.30;99.90;;;;;;5057658;28;20220;-65
2023/03/23 05:57:47;;;;;;;28.95;17.98;;;11.40;99.90;;;;;;5065875;28;20261;-64
2023/03/23 06:00:58;;;;;;;28.75;17.15;;;11.40;99.90;;;;;;5064526;28;20734;-65
2023/03/23 06:03:51;;;;;;;26.73;17.65;;;11.50;99.90;;;;;;5064384;28;20302;-66
2023/03/23 06:06:43;;;;;;;26.25;17.25;;;11.50;99.90;;;;;;5087800;28;20684;-66
2023/03/23 06:09:32;;;;;;;28.13;16.33;;;11.60;99.90;;;;;;5059733;28;20258;-66
2023/03/23 06:12:25;;;;;;;25.45;17.05;;;11.70;99.90;;;;;;5078327;28;20216;-66
2023/03/23 06:15:39;;;;;;;26.20;16.73;;;11.60;99.90;;;;;;5058262;28;20274;-68
2023/03/23 06:18:49;;;;;;;26.65;16.67;;;11.70;99.90;;;;;;5057102;28;20303;-67
2023/03/23 06:21:46;;;;;;;28.88;16.58;;;11.70;99.90;;;;;;5059698;28;20845;-68
2023/03/23 06:24:44;;;;;;;30.73;16.83;;;11.70;99.90;;;;;;5078795;28;20241;-66
2023/03/23 06:27:37;;;;;;;22.52;16.05;;;11.80;99.90;;;;;;5060259;28;20230;-65
2023/03/23 06:30:26;;;;;;;26.83;16.50;;;11.80;99.90;;;;;;5055632;28;20224;-66
2023/03/23 06:33:15;;;;;;;25.48;16.90;;;11.90;99.90;;;;;;5074476;28;20307;-67
2023/03/23 06:36:26;;;;;;;23.10;16.90;;;11.90;99.90;;;;;;5071490;28;20608;-67
2023/03/23 06:39:43;;;;;;;27.25;16.45;;;12.00;99.90;;;;;;5070594;28;20236;-67
2023/03/23 06:42:44;;;;;;;27.70;16.63;;;12.10;99.90;;;;;;5061220;28;20226;-68
2023/03/23 06:46:00;;;;;;;26.33;16.65;;;12.20;99.90;;;;;;5072155;28;20590;-68
2023/03/23 06:48:51;;;;;;;27.13;15.32;;;12.40;99.90;;;;;;5069994;28;20211;-67
2023/03/23 06:51:44;;;;;;;26.50;15.40;;;12.40;99.90;;;;;;5074387;28;20314;-67
2023/03/23 06:54:33;;;;;;;21.70;15.75;;;12.50;99.90;;;;;;5062689;28;20259;-68
2023/03/23 06:57:23;;;;;;;21.98;15.55;;;12.60;99.90;;;;;;5063893;28;21013;-70
2023/03/23 07:00:15;;;;;;;24.95;15.45;;;12.60;99.90;;;;;;5072717;28;20999;-65
2023/03/23 07:03:04;;;;;;;23.52;15.43;;;12.70;99.90;;;;;;5060863;28;20220;-65
2023/03/23 07:05:53;;;;;;;24.13;15.50;;;12.70;99.90;;;;;;5060891;28;20230;-66
2023/03/23 07:08:44;;;;;;;27.27;15.60;;;12.80;99.90;;;;;;5066681;28;20231;-65
2023/03/23 07:11:38;;;;;;;21.38;15.45;;;12.90;99.90;;;;;;5082275;28;20230;-64
2023/03/23 07:14:35;;;;;;;23.48;15.50;;;13.00;99.90;;;;;;5084436;28;20602;-65
2023/03/23 07:17:23;;;;;;;23.10;15.32;;;13.10;99.90;;;;;;5069795;28;21095;-65
2023/03/23 07:20:32;;;;;;;27.02;15.32;;;13.30;99.90;;;;;;5094462;28;20272;-67
2023/03/23 07:23:20;;;;;;;22.83;14.85;;;13.40;99.90;;;;;;5075684;28;20393;-65
2023/03/23 07:26:16;;;;;;;23.58;14.00;;;13.50;99.90;;;;;;5064242;28;20264;-62
2023/03/23 07:29:11;;;;;;;20.38;13.93;;;13.60;99.90;;;;;;5063272;28;20739;-63
2023/03/23 07:32:03;;;;;;;22.63;13.93;;;13.80;99.90;;;;;;5077912;28;20280;-68
2023/03/23 07:34:54;;;;;;;25.23;14.30;;;13.90;99.90;;;;;;5090663;28;20702;-68
2023/03/23 07:38:03;;;;;;;21.60;13.15;;;13.90;99.90;;;;;;5079847;28;20230;-66
2023/03/23 07:40:52;;;;;;;26.52;17.10;;;13.80;99.90;;;;;;5069893;28;20306;-62
2023/03/23 07:43:42;;;;;;;19.95;12.68;;;14.10;99.90;;;;;;5066797;28;20223;-66
2023/03/23 07:46:43;;;;;;;23.27;13.10;;;14.40;99.90;;;;;;5068919;28;20219;-66
2023/03/23 07:49:39;;;;;;;20.08;12.27;;;14.30;99.90;;;;;;5070082;28;20246;-66
2023/03/23 07:52:38;;;;;;;19.67;12.05;;;14.40;99.90;;;;;;5065091;28;20359;-65
2023/03/23 07:55:27;;;;;;;17.85;11.68;;;14.70;99.90;;;;;;5061090;28;20631;-63
2023/03/23 07:58:52;;;;;;;18.13;11.52;;;15.10;99.90;;;;;;5069557;28;20223;-62
2023/03/23 08:01:40;;;;;;;20.50;11.15;;;15.00;99.90;;;;;;5069059;27;20230;-64
2023/03/23 08:04:48;;;;;;;19.15;11.48;;;15.10;99.90;;;;;;5055848;28;20235;-65
2023/03/23 08:07:59;;;;;;;16.98;11.48;;;15.30;99.90;;;;;;5074286;28;20562;-63
2023/03/23 08:11:06;;;;;;;15.98;10.65;;;15.30;99.90;;;;;;5080285;28;20318;-64
2023/03/23 08:14:14;;;;;;;16.25;10.63;;;15.10;99.90;;;;;;5063963;28;20215;-64
2023/03/23 08:17:23;;;;;;;16.95;11.02;;;15.20;99.90;;;;;;5067408;28;20486;-64
2023/03/23 08:20:29;;;;;;;14.48;9.82;;;15.40;99.90;;;;;;5078397;28;20219;-63
2023/03/23 08:23:17;;;;;;;14.60;10.00;;;15.30;99.90;;;;;;5076741;28;20234;-63
2023/03/23 08:26:23;;;;;;;13.30;9.70;;;15.30;99.90;;;;;;5070670;28;20740;-63
2023/03/23 08:29:22;;;;;;;20.38;10.82;;;15.70;99.90;;;;;;5065447;28;20337;-63
2023/03/23 08:32:22;;;;;;;16.83;10.52;;;16.00;99.90;;;;;;5073286;28;20279;-63
2023/03/23 08:35:23;;;;;;;16.92;9.98;;;16.10;99.90;;;;;;5060914;28;20219;-63
2023/03/23 08:38:34;;;;;;;13.13;9.32;;;15.90;99.90;;;;;;5052525;28;20224;-64
2023/03/23 08:41:57;;;;;;;15.60;9.35;;;15.80;99.90;;;;;;5068440;28;20314;-63
2023/03/23 08:45:19;;;;;;;13.10;8.55;;;15.90;99.90;;;;;;5074576;28;20219;-63
2023/03/23 08:48:15;;;;;;;12.65;7.93;;;16.00;99.90;;;;;;5080554;28;20234;-63
2023/03/23 08:51:07;;;;;;;16.23;8.00;;;16.30;99.90;;;;;;5079074;28;20364;-68
2023/03/23 08:54:13;;;;;;;12.60;7.90;;;16.10;99.90;;;;;;5075183;28;20227;-65
2023/03/23 08:57:19;;;;;;;11.60;7.05;;;16.10;99.90;;;;;;5077757;28;20223;-64
2023/03/23 09:00:25;;;;;;;10.25;7.07;;;16.20;99.90;;;;;;5078613;28;20238;-65
2023/03/23 09:03:32;;;;;;;9.43;6.53;;;16.00;99.90;;;;;;5074964;28;20940;-65
2023/03/23 09:06:40;;;;;;;12.15;6.60;;;16.00;99.90;;;;;;5074744;28;20246;-66
2023/03/23 09:09:27;;;;;;;11.02;6.53;;;15.90;99.90;;;;;;5076692;28;20228;-66
2023/03/23 09:12:15;;;;;;;8.73;5.90;;;16.00;99.90;;;;;;5073252;28;20231;-63
2023/03/23 09:15:08;;;;;;;11.65;6.00;;;16.00;99.90;;;;;;5081083;27;20231;-64
2023/03/23 09:17:58;;;;;;;9.43;6.32;;;16.00;99.90;;;;;;5065874;28;20219;-65
2023/03/23 09:20:45;;;;;;;11.85;6.70;;;15.90;99.90;;;;;;5077502;28;20688;-65
2023/03/23 09:23:33;;;;;;;9.32;6.35;;;15.90;99.90;;;;;;5074773;28;20661;-66
2023/03/23 09:26:21;;;;;;;9.68;6.43;;;15.90;99.90;;;;;;5077440;28;20235;-65
2023/03/23 09:29:09;;;;;;;12.57;7.85;;;16.00;99.90;;;;;;5060349;28;20219;-65
2023/03/23 09:31:57;;;;;;;12.15;6.78;;;15.90;99.90;;;;;;5080101;28;21074;-65
2023/03/23 09:34:46;;;;;;;7.93;6.13;;;16.00;99.90;;;;;;5078563;28;20710;-66
2023/03/23 09:37:35;;;;;;;10.90;6.78;;;16.10;99.90;;;;;;5069686;28;20761;-65
2023/03/23 09:40:27;;;;;;;13.30;6.57;;;16.20;99.90;;;;;;5079855;28;20232;-65
2023/03/23 09:43:36;;;;;;;12.80;6.43;;;16.30;99.90;;;;;;5076390;28;20215;-64
2023/03/23 09:46:38;;;;;;;11.73;6.70;;;16.40;99.90;;;;;;5090734;28;20230;-66
2023/03/23 09:49:32;;;;;;;10.50;7.13;;;16.50;99.90;;;;;;5062720;28;20210;-66
2023/03/23 09:52:21;;;;;;;14.55;7.57;;;16.70;99.90;;;;;;5091286;28;21194;-66
2023/03/23 09:55:14;;;;;;;16.10;7.15;;;16.80;99.90;;;;;;5077761;28;20242;-65
2023/03/23 09:58:23;;;;;;;12.52;7.47;;;17.10;99.90;;;;;;5080181;28;20223;-66
2023/03/23 10:01:18;;;;;;;19.63;7.35;;;17.30;99.90;;;;;;5073028;28;20238;-66
2023/03/23 10:04:13;;;;;;;36.28;9.15;;;17.60;99.90;;;;;;5075593;28;20722;-67
2023/03/23 10:07:07;;;;;;;22.10;8.15;;;17.80;99.90;;;;;;5057019;28;20432;-67
2023/03/23 10:09:58;;;;;;;15.02;7.45;;;17.90;99.90;;;;;;5070158;28;20226;-66
2023/03/23 10:12:52;;;;;;;14.25;7.25;;;17.50;99.90;;;;;;5073122;28;20801;-66
2023/03/23 10:15:41;;;;;;;12.27;7.00;;;17.30;99.90;;;;;;5078911;28;20258;-65
2023/03/23 10:18:34;;;;;;;12.75;6.80;;;17.40;99.90;;;;;;5055699;28;20302;-66
2023/03/23 10:21:25;;;;;;;8.63;6.45;;;17.40;99.90;;;;;;5073101;28;20219;-65
2023/03/23 10:24:17;;;;;;;11.68;5.80;;;17.30;99.90;;;;;;5077525;28;20224;-65
2023/03/23 10:27:21;;;;;;;9.18;5.65;;;17.30;99.90;;;;;;5083312;28;20606;-64
2023/03/23 10:30:18;;;;;;;8.13;5.32;;;17.30;99.90;;;;;;5072260;28;20238;-66
2023/03/23 10:33:14;;;;;;;11.82;6.05;;;17.40;99.90;;;;;;5032441;28;20382;-65
2023/03/23 10:36:07;;;;;;;8.90;5.60;;;17.40;99.90;;;;;;5041082;28;20248;-65
2023/03/23 10:38:59;;;;;;;10.00;5.60;;;17.50;99.90;;;;;;5030212;28;20332;-66
2023/03/23 10:41:47;;;;;;;9.20;5.68;;;17.80;99.90;;;;;;5040878;28;20693;-66
2023/03/23 10:44:37;;;;;;;7.35;5.03;;;18.00;99.90;;;;;;5030445;28;20227;-65
2023/03/23 10:47:26;;;;;;;9.50;4.55;;;18.00;99.90;;;;;;5043459;28;20776;-66
2023/03/23 10:50:16;;;;;;;9.15;5.68;;;18.30;99.90;;;;;;5058041;28;20339;-66
2023/03/23 10:53:15;;;;;;;7.43;4.30;;;18.50;99.90;;;;;;5033714;28;20693;-66
2023/03/23 10:56:04;;;;;;;9.25;3.95;;;18.50;99.90;;;;;;5044044;28;20281;-65
2023/03/23 10:58:53;;;;;;;11.60;4.43;;;18.70;99.90;;;;;;5036874;28;20382;-65
2023/03/23 11:01:45;;;;;;;11.65;3.83;;;18.70;99.90;;;;;;5038100;28;20366;-64
2023/03/23 11:04:34;;;;;;;6.60;3.97;;;18.80;99.90;;;;;;5054532;28;22003;-67
2023/03/23 11:07:30;;;;;;;8.90;4.20;;;18.80;99.90;;;;;;5026915;28;20220;-65
2023/03/23 11:10:23;;;;;;;5.13;3.88;;;19.00;99.90;;;;;;5028983;28;20220;-66
2023/03/23 11:13:15;;;;;;;6.97;4.10;;;18.80;99.90;;;;;;5043822;28;20254;-66
2023/03/23 11:16:02;;;;;;;7.18;3.85;;;18.90;99.90;;;;;;5058676;28;20235;-64
2023/03/23 11:18:52;;;;;;;6.70;3.90;;;18.90;99.90;;;;;;5043354;28;20248;-66
2023/03/23 11:21:40;;;;;;;5.28;4.22;;;19.10;99.90;;;;;;5040090;28;20216;-66
2023/03/23 11:24:29;;;;;;;6.47;3.92;;;19.00;99.90;;;;;;5029531;28;20224;-66
2023/03/23 11:27:17;;;;;;;7.28;3.67;;;19.20;99.90;;;;;;5044366;28;20227;-66
2023/03/23 11:30:11;;;;;;;5.72;4.40;;;19.30;99.90;;;;;;5076638;28;20226;-66
2023/03/23 11:33:02;;;;;;;6.75;3.90;;;19.30;99.90;;;;;;5058793;28;20215;-67
2023/03/23 11:35:55;;;;;;;7.40;4.03;;;19.20;99.90;;;;;;5065557;28;20243;-66
2023/03/23 11:38:45;;;;;;;5.53;3.70;;;19.20;99.90;;;;;;5074588;28;20246;-64
2023/03/23 11:41:36;;;;;;;5.78;2.50;;;19.30;99.90;;;;;;5073355;28;20369;-67
2023/03/23 11:44:25;;;;;;;4.32;2.15;;;19.30;99.90;;;;;;5077032;28;20702;-65
2023/03/23 11:47:22;;;;;;;7.32;3.05;;;19.40;99.90;;;;;;5075263;28;20215;-66
2023/03/23 11:50:15;;;;;;;7.20;2.60;;;19.30;99.90;;;;;;5075988;28;20353;-66
2023/03/23 11:53:15;;;;;;;5.13;2.60;;;19.20;99.90;;;;;;5076273;28;20236;-67
2023/03/23 11:56:12;;;;;;;4.68;2.60;;;19.10;99.90;;;;;;5080450;28;20344;-66
2023/03/23 11:59:00;;;;;;;6.47;2.40;;;18.90;99.90;;;;;;5081793;28;20235;-66
2023/03/23 12:01:52;;;;;;;6.03;2.35;;;18.90;99.90;;;;;;5064610;28;20219;-65
2023/03/23 12:05:13;;;;;;;4.68;2.30;;;18.80;99.90;;;;;;5078671;28;20223;-67
2023/03/23 12:08:17;;;;;;;3.38;2.33;;;19.20;99.90;;;;;;5076924;28;20757;-66
2023/03/23 12:11:13;;;;;;;6.05;3.33;;;19.10;99.90;;;;;;5076636;28;20575;-67
2023/03/23 12:14:12;;;;;;;4.25;2.30;;;19.10;99.90;;;;;;5059733;28;20722;-66
2023/03/23 12:17:08;;;;;;;6.30;2.20;;;19.30;99.90;;;;;;5076697;28;20220;-66
2023/03/23 12:20:22;;;;;;;4.78;2.55;;;19.30;99.90;;;;;;5078422;28;20231;-66
2023/03/23 12:23:21;;;;;;;4.18;2.38;;;19.30;99.90;;;;;;5078842;28;20341;-67
2023/03/23 12:26:18;;;;;;;4.82;2.10;;;19.30;99.90;;;;;;5082234;27;20252;-66
2023/03/23 12:29:22;;;;;;;9.23;2.72;;;19.30;99.90;;;;;;5067854;28;20223;-66
2023/03/23 12:32:30;;;;;;;6.10;2.50;;;19.20;99.90;;;;;;5065953;28;20227;-67
2023/03/23 12:35:29;;;;;;;5.95;2.75;;;19.30;99.90;;;;;;5079864;28;20952;-65
2023/03/23 12:38:36;;;;;;;4.75;2.78;;;19.40;99.90;;;;;;5066736;28;20260;-66
2023/03/23 12:41:31;;;;;;;4.25;2.92;;;19.10;99.90;;;;;;5066413;28;20230;-65
2023/03/23 12:44:25;;;;;;;5.82;3.30;;;19.10;99.90;;;;;;5065381;28;20369;-66
2023/03/23 12:47:31;;;;;;;9.68;3.40;;;19.10;99.90;;;;;;5052085;28;20218;-66
2023/03/23 12:50:26;;;;;;;4.75;3.00;;;18.90;99.90;;;;;;5077811;28;20275;-67
2023/03/23 12:53:18;;;;;;;9.50;3.65;;;18.90;99.90;;;;;;5072120;28;20226;-67
2023/03/23 12:56:15;;;;;;;8.15;3.95;;;18.90;99.90;;;;;;5064408;28;20311;-67
2023/03/23 12:59:23;;;;;;;5.72;3.25;;;19.00;99.90;;;;;;5049213;28;20227;-68
2023/03/23 13:02:19;;;;;;;5.75;3.90;;;19.00;99.90;;;;;;5080048;28;20223;-66
2023/03/23 13:05:12;;;;;;;4.88;3.67;;;19.10;99.90;;;;;;5050605;28;20227;-64
2023/03/23 13:08:05;;;;;;;7.25;3.47;;;19.20;99.90;;;;;;5057383;28;20251;-66
2023/03/23 13:10:58;;;;;;;5.47;3.50;;;19.10;99.90;;;;;;5065076;28;20690;-66
2023/03/23 13:13:52;;;;;;;10.02;4.32;;;19.00;99.90;;;;;;5087183;27;20219;-67
2023/03/23 13:16:48;;;;;;;7.10;4.13;;;18.90;99.90;;;;;;5060702;28;20243;-66
2023/03/23 13:20:07;;;;;;;6.28;4.07;;;18.80;99.90;;;;;;5062500;28;20212;-66
2023/03/23 13:23:01;;;;;;;6.97;4.10;;;18.80;99.90;;;;;;5039811;28;20228;-67
2023/03/23 13:25:53;;;;;;;7.18;3.80;;;18.90;99.90;;;;;;5077582;28;20212;-65
2023/03/23 13:28:55;;;;;;;6.93;4.00;;;18.80;99.90;;;;;;5077357;28;20239;-66
2023/03/23 13:31:43;;;;;;;6.25;3.90;;;18.80;99.90;;;;;;5073901;28;20237;-66
2023/03/23 13:34:32;;;;;;;6.05;3.90;;;18.70;99.90;;;;;;5079310;28;20300;-67
2023/03/23 13:37:26;;;;;;;4.68;3.70;;;18.60;99.90;;;;;;5074342;28;20230;-67
2023/03/23 13:40:27;;;;;;;4.97;3.58;;;18.60;99.90;;;;;;5076751;28;20645;-66
2023/03/23 13:43:26;;;;;;;6.82;4.13;;;18.60;99.90;;;;;;5075933;28;20826;-67
2023/03/23 13:46:28;;;;;;;9.25;3.55;;;18.60;99.90;;;;;;5071340;28;20224;-67
2023/03/23 13:49:22;;;;;;;6.95;3.00;;;18.60;99.90;;;;;;5076660;28;20230;-67
2023/03/23 13:52:19;;;;;;;10.73;2.95;;;18.50;99.90;;;;;;5074950;28;20792;-67
2023/03/23 13:55:20;;;;;;;4.10;2.90;;;18.60;99.90;;;;;;5073467;28;20254;-66
2023/03/23 13:58:22;;;;;;;5.68;3.15;;;18.60;99.90;;;;;;5075001;28;20219;-66
2023/03/23 14:01:16;;;;;;;5.13;2.88;;;18.70;99.90;;;;;;5069907;28;20276;-66
2023/03/23 14:04:08;;;;;;;6.00;2.70;;;18.70;99.90;;;;;;5078017;28;20261;-66
2023/03/23 14:06:57;;;;;;;7.75;2.80;;;18.80;99.90;;;;;;5070200;28;20223;-65
2023/03/23 14:09:52;;;;;;;3.53;2.80;;;18.80;99.90;;;;;;5075778;28;20230;-65
2023/03/23 14:12:40;;;;;;;13.27;2.95;;;18.80;99.90;;;;;;5058202;28;20230;-65
2023/03/23 14:15:30;;;;;;;8.85;3.22;;;18.70;99.90;;;;;;5075470;28;21125;-64
2023/03/23 14:18:22;;;;;;;8.55;3.17;;;18.50;99.90;;;;;;5074229;28;20944;-66
2023/03/23 14:21:17;;;;;;;5.35;3.30;;;18.40;99.90;;;;;;5072372;28;20224;-65
2023/03/23 14:24:10;;;;;;;7.32;3.95;;;18.30;99.90;;;;;;5054767;28;20298;-67
2023/03/23 14:27:12;;;;;;;6.72;3.45;;;18.20;99.90;;;;;;5072672;28;20302;-66
2023/03/23 14:30:01;;;;;;;8.95;3.85;;;18.10;99.90;;;;;;5066315;28;20242;-66
2023/03/23 14:32:49;;;;;;;13.10;4.15;;;18.10;99.90;;;;;;5074203;28;20274;-66
2023/03/23 14:35:41;;;;;;;5.90;3.92;;;18.10;99.90;;;;;;5077903;28;20215;-68
2023/03/23 14:38:31;;;;;;;10.60;4.32;;;18.00;99.90;;;;;;5075079;28;20708;-68
2023/03/23 14:41:21;;;;;;;8.73;4.10;;;17.90;99.90;;;;;;5075599;28;20219;-67
2023/03/23 14:44:17;;;;;;;7.53;3.80;;;17.80;99.90;;;;;;5064312;28;20334;-66
2023/03/23 14:47:07;;;;;;;10.27;4.10;;;17.90;99.90;;;;;;5063979;28;20551;-70
2023/03/23 14:49:57;;;;;;;6.95;4.13;;;18.00;99.90;;;;;;5063135;28;20250;-66
2023/03/23 14:52:52;;;;;;;7.43;4.15;;;17.90;99.90;;;;;;5077050;28;20249;-67